Kezdőlap
METAR-TAF:

METAR-TAF

Repülőterek :

Brevoort Island, Nunavut, Kanada

földrajzi szélesség: 63-20N, földrajzi hosszúság: 064-09W, magasság: 367 m

Jelenlegi meteorológiai megfigyelések

A jelentés 44 perccel ezelõtt készült, 12:00 UTC
Észak-északnyugati szél 6 kt, nyugat-északnyugati és északi között változik
Hőmérséklet -10°C
Páratartalom 48%
Légköri nyomás 1013 hPa

METAR: CWOB 291200Z AUTO 33006KT 290V350 ////SM NCD M10/M19 A2990

Idő: 08:44 (12:44 UTC)


TAF: hiányzik

Meteorológiai megfigyelések és előrejelzések több, mint 4000 repülőtéren (METAR és TAF jelentéseket).

A térképen piros és sárga pontok jelzik az elérhető meteorológiai állomásokat.

Mozgassa az egeret a pont fölött, hogy megjelenjen az állomás neve.

Azután kattintson az időjárási megfigyelések és előrejelzések megtekintéséhez.

A térkép megváltoztatása: kattintson a fekete keresztel jelölt zöld gombra ráközelítéshez, a vonallal jelölt zöld gombra távolításhoz, vagy a zöld nyilakra a szomszédos térképek eléréséhez.


METAR-TAF: